createdAt,value
2023-01-21T00:00:17.632Z,-0.91
2023-01-21T00:01:17.395Z,-0.89
2023-01-21T00:02:17.382Z,-0.86
2023-01-21T00:03:17.367Z,-0.89
2023-01-21T00:04:17.338Z,-0.94
2023-01-21T00:05:17.327Z,-0.94
2023-01-21T00:06:17.324Z,-0.95
2023-01-21T00:07:17.308Z,-0.98
2023-01-21T00:08:17.309Z,-1.01
2023-01-21T00:09:17.282Z,-1.04
2023-01-21T00:10:17.648Z,-1.04
2023-01-21T00:11:17.276Z,-1.04
2023-01-21T00:12:17.247Z,-1.04
2023-01-21T00:13:17.275Z,-1.05
2023-01-21T00:14:17.245Z,-1.02
2023-01-21T00:15:17.217Z,-1.01
2023-01-21T00:16:17.216Z,-1.04
2023-01-21T00:17:17.201Z,-1.07
2023-01-21T00:18:17.179Z,-1.12
2023-01-21T00:19:17.186Z,-1.13
2023-01-21T00:20:17.384Z,-1.15
2023-01-21T00:21:17.171Z,-1.15
2023-01-21T00:22:17.143Z,-1.15
2023-01-21T00:23:17.137Z,-1.16
2023-01-21T00:24:17.167Z,-1.17
2023-01-21T00:25:17.124Z,-1.20
2023-01-21T00:26:17.098Z,-1.20
2023-01-21T00:27:17.097Z,-1.23
2023-01-21T00:28:17.110Z,-1.25
2023-01-21T00:29:17.089Z,-1.27
2023-01-21T00:30:17.472Z,-1.27
2023-01-21T00:31:17.167Z,-1.25
2023-01-21T00:32:17.038Z,-1.25
2023-01-21T00:33:17.027Z,-1.27
2023-01-21T00:34:17.058Z,-1.28
2023-01-21T00:35:17.019Z,-1.30
2023-01-21T00:36:16.991Z,-1.31
2023-01-21T00:37:16.990Z,-1.34
2023-01-21T00:38:16.988Z,-1.40
2023-01-21T00:39:16.978Z,-1.37
2023-01-21T00:40:17.276Z,-1.35
2023-01-21T00:41:16.968Z,-1.40
2023-01-21T00:42:16.989Z,-1.37
2023-01-21T00:43:16.931Z,-1.38
2023-01-21T00:44:16.948Z,-1.45
2023-01-21T00:45:16.898Z,-1.48
2023-01-21T00:46:16.914Z,-1.51
2023-01-21T00:47:16.905Z,-1.52
2023-01-21T00:48:16.876Z,-1.55
2023-01-21T00:49:16.880Z,-1.58
2023-01-21T00:50:17.183Z,-1.61
2023-01-21T00:51:16.882Z,-1.62
2023-01-21T00:52:16.968Z,-1.62
2023-01-21T00:53:16.820Z,-1.67
2023-01-21T00:54:16.838Z,-1.70
2023-01-21T00:55:16.817Z,-1.72
2023-01-21T00:56:16.782Z,-1.76
2023-01-21T00:57:16.778Z,-1.77
2023-01-21T00:58:16.759Z,-1.79
2023-01-21T00:59:16.778Z,-1.80
2023-01-21T01:00:17.015Z,-1.84
2023-01-21T01:01:16.801Z,-1.85
2023-01-21T01:02:16.758Z,-1.84
2023-01-21T01:03:16.720Z,-1.77
2023-01-21T01:04:16.720Z,-1.77
2023-01-21T01:05:16.700Z,-1.77
2023-01-21T01:06:16.679Z,-1.73
2023-01-21T01:07:16.669Z,-1.69
2023-01-21T01:08:16.658Z,-1.66
2023-01-21T01:09:16.660Z,-1.64
2023-01-21T01:10:16.844Z,-1.61
2023-01-21T01:11:16.635Z,-1.55
2023-01-21T01:12:16.609Z,-1.52
2023-01-21T01:13:16.621Z,-1.51
2023-01-21T01:14:16.601Z,-1.48
2023-01-21T01:15:16.590Z,-1.46
2023-01-21T01:16:16.610Z,-1.45
2023-01-21T01:17:16.588Z,-1.41
2023-01-21T01:18:16.540Z,-1.43
2023-01-21T01:19:16.564Z,-1.40
2023-01-21T01:20:16.668Z,-1.41
2023-01-21T01:21:16.517Z,-1.40
2023-01-21T01:22:16.518Z,-1.41
2023-01-21T01:23:16.516Z,-1.43
2023-01-21T01:24:16.553Z,-1.41
2023-01-21T01:25:16.479Z,-1.40
2023-01-21T01:26:16.524Z,-1.38
2023-01-21T01:27:16.466Z,-1.40
2023-01-21T01:28:16.448Z,-1.37
2023-01-21T01:29:16.458Z,-1.35
2023-01-21T01:30:16.797Z,-1.37
2023-01-21T01:31:16.523Z,-1.35
2023-01-21T01:32:16.419Z,-1.38
2023-01-21T01:33:16.395Z,-1.35
2023-01-21T01:34:16.434Z,-1.38
2023-01-21T01:35:16.424Z,-1.34
2023-01-21T01:36:16.399Z,-1.35
2023-01-21T01:37:16.347Z,-1.37
2023-01-21T01:38:16.348Z,-1.34
2023-01-21T01:39:16.329Z,-1.34
2023-01-21T01:40:16.668Z,-1.34
2023-01-21T01:41:16.307Z,-1.34
2023-01-21T01:42:16.300Z,-1.31
2023-01-21T01:43:16.291Z,-1.34
2023-01-21T01:44:16.288Z,-1.33
2023-01-21T01:45:16.259Z,-1.34
2023-01-21T01:46:16.275Z,-1.28
2023-01-21T01:47:16.253Z,-1.30
2023-01-21T01:48:16.239Z,-1.30
2023-01-21T01:49:16.227Z,-1.33
2023-01-21T01:50:16.456Z,-1.33
2023-01-21T01:51:16.259Z,-1.34
2023-01-21T01:52:16.207Z,-1.35
2023-01-21T01:53:16.188Z,-1.37
2023-01-21T01:54:16.339Z,-1.37
2023-01-21T01:55:16.165Z,-1.35
2023-01-21T01:56:16.176Z,-1.35
2023-01-21T01:57:16.163Z,-1.38
2023-01-21T01:58:16.197Z,-1.40
2023-01-21T01:59:16.143Z,-1.37
2023-01-21T02:00:16.369Z,-1.37
2023-01-21T02:01:16.087Z,-1.38
2023-01-21T02:02:16.146Z,-1.41
2023-01-21T02:03:16.072Z,-1.43
2023-01-21T02:04:16.099Z,-1.40
2023-01-21T02:05:16.053Z,-1.41
2023-01-21T02:06:16.051Z,-1.41
2023-01-21T02:07:16.027Z,-1.41
2023-01-21T02:08:16.067Z,-1.43
2023-01-21T02:09:16.034Z,-1.46
2023-01-21T02:10:16.334Z,-1.48
2023-01-21T02:11:15.988Z,-1.48
2023-01-21T02:12:15.980Z,-1.52
2023-01-21T02:13:15.968Z,-1.51
2023-01-21T02:14:15.981Z,-1.52
2023-01-21T02:15:15.941Z,-1.49
2023-01-21T02:16:16.041Z,-1.49
2023-01-21T02:17:15.928Z,-1.51
2023-01-21T02:18:15.911Z,-1.49
2023-01-21T02:19:15.929Z,-1.52
2023-01-21T02:20:16.183Z,-1.54
2023-01-21T02:21:15.889Z,-1.52
2023-01-21T02:22:15.880Z,-1.49
2023-01-21T02:23:15.868Z,-1.51
2023-01-21T02:24:16.088Z,-1.52
2023-01-21T02:25:15.864Z,-1.54
2023-01-21T02:26:15.840Z,-1.52
2023-01-21T02:27:15.818Z,-1.52
2023-01-21T02:28:15.822Z,-1.52
2023-01-21T02:29:15.818Z,-1.54
2023-01-21T02:30:16.072Z,-1.54
2023-01-21T02:31:15.899Z,-1.52
2023-01-21T02:32:15.885Z,-1.52
2023-01-21T02:33:15.760Z,-1.52
2023-01-21T02:34:15.768Z,-1.56
2023-01-21T02:35:15.749Z,-1.59
2023-01-21T02:36:15.719Z,-1.61
2023-01-21T02:37:15.720Z,-1.61
2023-01-21T02:38:15.713Z,-1.64
2023-01-21T02:39:15.709Z,-1.64
2023-01-21T02:40:16.023Z,-1.64
2023-01-21T02:41:15.678Z,-1.66
2023-01-21T02:42:15.658Z,-1.66
2023-01-21T02:43:15.657Z,-1.62
2023-01-21T02:44:15.690Z,-1.66
2023-01-21T02:45:15.651Z,-1.67
2023-01-21T02:46:15.677Z,-1.69
2023-01-21T02:47:15.617Z,-1.70
2023-01-21T02:48:15.657Z,-1.69
2023-01-21T02:49:15.619Z,-1.72
2023-01-21T02:50:15.888Z,-1.72
2023-01-21T02:51:15.610Z,-1.76
2023-01-21T02:52:15.636Z,-1.79
2023-01-21T02:53:15.550Z,-1.85
2023-01-21T02:54:15.541Z,-1.90
2023-01-21T02:55:15.530Z,-1.95
2023-01-21T02:56:15.510Z,-1.97
2023-01-21T02:57:15.508Z,-2.05
2023-01-21T02:58:15.500Z,-2.08
2023-01-21T02:59:15.505Z,-2.10
2023-01-21T03:00:15.833Z,-2.13
2023-01-21T03:01:15.510Z,-2.12
2023-01-21T03:02:15.504Z,-2.13
2023-01-21T03:03:15.467Z,-2.13
2023-01-21T03:04:15.440Z,-2.12
2023-01-21T03:05:15.419Z,-2.12
2023-01-21T03:06:15.438Z,-2.12
2023-01-21T03:07:15.447Z,-2.15
2023-01-21T03:08:15.511Z,-2.16
2023-01-21T03:09:15.387Z,-2.23
2023-01-21T03:10:15.749Z,-2.24
2023-01-21T03:11:15.376Z,-2.27
2023-01-21T03:12:15.478Z,-2.32
2023-01-21T03:13:15.353Z,-2.35
2023-01-21T03:14:15.359Z,-2.39
2023-01-21T03:15:15.316Z,-2.42
2023-01-21T03:16:15.378Z,-2.45
2023-01-21T03:17:15.308Z,-2.48
2023-01-21T03:18:15.276Z,-2.50
2023-01-21T03:19:15.273Z,-2.52
2023-01-21T03:20:15.722Z,-2.53
2023-01-21T03:21:15.248Z,-2.58
2023-01-21T03:22:15.300Z,-2.61
2023-01-21T03:23:15.247Z,-2.66
2023-01-21T03:24:15.218Z,-2.70
2023-01-21T03:25:15.205Z,-2.70
2023-01-21T03:26:15.214Z,-2.70
2023-01-21T03:27:15.182Z,-2.70
2023-01-21T03:28:15.171Z,-2.68
2023-01-21T03:29:15.206Z,-2.71
2023-01-21T03:30:15.420Z,-2.73
2023-01-21T03:31:15.231Z,-2.74
2023-01-21T03:32:15.196Z,-2.71
2023-01-21T03:33:15.133Z,-2.70
2023-01-21T03:34:15.119Z,-2.70
2023-01-21T03:35:15.099Z,-2.77
2023-01-21T03:36:15.165Z,-2.77
2023-01-21T03:37:15.080Z,-2.78
2023-01-21T03:38:15.077Z,-2.79
2023-01-21T03:39:15.068Z,-2.79
2023-01-21T03:40:15.651Z,-2.82
2023-01-21T03:41:15.044Z,-2.82
2023-01-21T03:42:15.036Z,-2.79
2023-01-21T03:43:15.040Z,-2.78
2023-01-21T03:44:15.019Z,-2.82
2023-01-21T03:45:15.003Z,-2.84
2023-01-21T03:46:14.990Z,-2.85
2023-01-21T03:47:14.967Z,-2.81
2023-01-21T03:48:14.962Z,-2.82
2023-01-21T03:49:14.981Z,-2.86
2023-01-21T03:50:15.317Z,-2.88
2023-01-21T03:51:14.962Z,-2.88
2023-01-21T03:52:14.925Z,-2.89
2023-01-21T03:53:14.912Z,-2.91
2023-01-21T03:54:14.937Z,-2.94
2023-01-21T03:55:14.890Z,-2.96
2023-01-21T03:56:14.886Z,-2.96
2023-01-21T03:57:14.858Z,-2.99
2023-01-21T03:58:14.857Z,-3.02
2023-01-21T03:59:14.868Z,-3.05
2023-01-21T04:00:15.073Z,-3.09
2023-01-21T04:01:14.873Z,-3.12
2023-01-21T04:02:14.896Z,-3.10
2023-01-21T04:03:14.804Z,-3.12
2023-01-21T04:04:14.833Z,-3.14
2023-01-21T04:05:14.781Z,-3.17
2023-01-21T04:06:14.814Z,-3.12
2023-01-21T04:07:14.769Z,-3.15
2023-01-21T04:08:14.763Z,-3.18
2023-01-21T04:09:14.748Z,-3.20
2023-01-21T04:10:14.969Z,-3.20
2023-01-21T04:11:14.716Z,-3.21
2023-01-21T04:12:14.717Z,-3.24
2023-01-21T04:13:14.727Z,-3.25
2023-01-21T04:14:14.784Z,-3.27
2023-01-21T04:15:14.676Z,-3.27
2023-01-21T04:16:14.721Z,-3.30
2023-01-21T04:17:14.668Z,-3.30
2023-01-21T04:18:14.679Z,-3.30
2023-01-21T04:19:14.660Z,-3.35
2023-01-21T04:20:14.789Z,-3.36
2023-01-21T04:21:14.640Z,-3.39
2023-01-21T04:22:14.646Z,-3.36
2023-01-21T04:23:14.609Z,-3.38
2023-01-21T04:24:14.651Z,-3.36
2023-01-21T04:25:14.587Z,-3.38
2023-01-21T04:26:14.686Z,-3.41
2023-01-21T04:27:14.561Z,-3.43
2023-01-21T04:28:14.547Z,-3.45
2023-01-21T04:29:14.545Z,-3.46
2023-01-21T04:30:14.845Z,-3.52
2023-01-21T04:31:14.515Z,-3.54
2023-01-21T04:32:14.496Z,-3.59
2023-01-21T04:33:14.498Z,-3.57
2023-01-21T04:34:14.507Z,-3.54
2023-01-21T04:35:14.477Z,-3.52
2023-01-21T04:36:14.503Z,-3.48
2023-01-21T04:37:14.464Z,-3.49
2023-01-21T04:38:14.474Z,-3.53
2023-01-21T04:39:14.493Z,-3.53
2023-01-21T04:40:14.659Z,-3.52
2023-01-21T04:41:14.432Z,-3.52
2023-01-21T04:42:14.418Z,-3.52
2023-01-21T04:43:14.396Z,-3.56
2023-01-21T04:44:14.388Z,-3.57
2023-01-21T04:45:14.377Z,-3.60
2023-01-21T04:46:14.436Z,-3.62
2023-01-21T04:47:14.349Z,-3.62
2023-01-21T04:48:14.336Z,-3.59
2023-01-21T04:49:14.347Z,-3.59
2023-01-21T04:50:14.515Z,-3.57
2023-01-21T04:51:14.356Z,-3.56
2023-01-21T04:52:14.339Z,-3.56
2023-01-21T04:53:14.295Z,-3.56
2023-01-21T04:54:14.342Z,-3.57
2023-01-21T04:55:14.274Z,-3.56
2023-01-21T04:56:14.258Z,-3.57
2023-01-21T04:57:14.244Z,-3.57
2023-01-21T04:58:14.226Z,-3.57
2023-01-21T04:59:14.243Z,-3.60
2023-01-21T05:00:14.287Z,-3.62
2023-01-21T05:01:14.360Z,-3.63
2023-01-21T05:02:14.243Z,-3.63
2023-01-21T05:03:14.175Z,-3.67
2023-01-21T05:04:14.195Z,-3.67
2023-01-21T05:05:14.169Z,-3.71
2023-01-21T05:06:14.148Z,-3.69
2023-01-21T05:07:14.145Z,-3.69
2023-01-21T05:08:14.137Z,-3.67
2023-01-21T05:09:14.131Z,-3.67
2023-01-21T05:10:14.178Z,-3.69
2023-01-21T05:11:14.107Z,-3.69
2023-01-21T05:12:14.088Z,-3.71
2023-01-21T05:13:14.092Z,-3.75
2023-01-21T05:14:14.092Z,-3.76
2023-01-21T05:15:14.061Z,-3.79
2023-01-21T05:16:14.046Z,-3.81
2023-01-21T05:17:14.046Z,-3.83
2023-01-21T05:18:14.055Z,-3.83
2023-01-21T05:19:14.113Z,-3.83
2023-01-21T05:20:14.087Z,-3.88
2023-01-21T05:21:13.998Z,-3.91
2023-01-21T05:22:13.983Z,-3.94
2023-01-21T05:23:13.979Z,-3.96
2023-01-21T05:24:14.054Z,-3.97
2023-01-21T05:25:13.954Z,-3.97
2023-01-21T05:26:13.955Z,-3.93
2023-01-21T05:27:13.940Z,-3.96
2023-01-21T05:28:13.925Z,-3.94
2023-01-21T05:29:13.936Z,-3.88
2023-01-21T05:30:13.976Z,-3.85
2023-01-21T05:31:13.996Z,-3.85
2023-01-21T05:32:13.885Z,-3.83
2023-01-21T05:33:13.880Z,-3.83
2023-01-21T05:34:13.925Z,-3.85
2023-01-21T05:35:13.858Z,-3.86
2023-01-21T05:36:13.884Z,-3.86
2023-01-21T05:37:13.852Z,-3.91
2023-01-21T05:38:13.827Z,-3.96
2023-01-21T05:39:13.833Z,-3.99
2023-01-21T05:40:13.923Z,-3.99
2023-01-21T05:41:13.807Z,-4.01
2023-01-21T05:42:13.788Z,-4.03
2023-01-21T05:43:13.775Z,-4.04
2023-01-21T05:44:15.064Z,-4.07
2023-01-21T05:45:13.755Z,-4.10
2023-01-21T05:46:13.785Z,-4.11
2023-01-21T05:47:13.738Z,-4.14
2023-01-21T05:48:13.711Z,-4.12
2023-01-21T05:49:13.726Z,-4.11
2023-01-21T05:50:13.704Z,-4.07
2023-01-21T05:51:13.750Z,-4.04
2023-01-21T05:52:13.665Z,-4.06
2023-01-21T05:53:13.678Z,-4.10
2023-01-21T05:54:13.708Z,-4.14
2023-01-21T05:55:13.646Z,-4.15
2023-01-21T05:56:13.666Z,-4.15
2023-01-21T05:57:13.633Z,-4.17
2023-01-21T05:58:13.647Z,-4.18
2023-01-21T05:59:13.657Z,-4.18
2023-01-21T06:00:13.600Z,-4.20
2023-01-21T06:01:13.583Z,-4.21
2023-01-21T06:02:13.656Z,-4.20
2023-01-21T06:03:13.599Z,-4.18
2023-01-21T06:04:13.610Z,-4.20
2023-01-21T06:05:13.562Z,-4.18
2023-01-21T06:06:13.536Z,-4.17
2023-01-21T06:07:13.534Z,-4.17
2023-01-21T06:08:13.505Z,-4.21
2023-01-21T06:09:13.506Z,-4.21
2023-01-21T06:10:13.561Z,-4.22
2023-01-21T06:11:13.487Z,-4.24
2023-01-21T06:12:13.460Z,-4.24
2023-01-21T06:13:13.453Z,-4.25
2023-01-21T06:14:13.539Z,-4.28
2023-01-21T06:15:13.432Z,-4.29
2023-01-21T06:16:13.487Z,-4.29
2023-01-21T06:17:13.429Z,-4.30
2023-01-21T06:18:13.420Z,-4.30
2023-01-21T06:19:13.423Z,-4.29
2023-01-21T06:20:13.387Z,-4.30
2023-01-21T06:21:13.371Z,-4.32
2023-01-21T06:22:13.360Z,-4.33
2023-01-21T06:23:13.357Z,-4.33
2023-01-21T06:24:13.420Z,-4.35
2023-01-21T06:25:13.348Z,-4.36
2023-01-21T06:26:13.415Z,-4.36
2023-01-21T06:27:13.326Z,-4.36
2023-01-21T06:28:13.350Z,-4.38
2023-01-21T06:29:13.318Z,-4.38
2023-01-21T06:30:13.289Z,-4.38
2023-01-21T06:31:13.436Z,-4.39
2023-01-21T06:32:13.260Z,-4.40
2023-01-21T06:33:13.247Z,-4.43
2023-01-21T06:34:13.254Z,-4.46
2023-01-21T06:35:13.238Z,-4.49
2023-01-21T06:36:13.222Z,-4.50
2023-01-21T06:37:13.213Z,-4.50
2023-01-21T06:38:13.283Z,-4.49
2023-01-21T06:39:13.195Z,-4.49
2023-01-21T06:40:13.182Z,-4.50
2023-01-21T06:41:13.179Z,-4.49
2023-01-21T06:42:13.143Z,-4.49
2023-01-21T06:43:13.144Z,-4.47
2023-01-21T06:44:13.144Z,-4.47
2023-01-21T06:45:13.122Z,-4.49
2023-01-21T06:46:13.215Z,-4.51
2023-01-21T06:47:13.102Z,-4.54
2023-01-21T06:48:13.105Z,-4.56
2023-01-21T06:49:13.092Z,-4.56
2023-01-21T06:50:13.084Z,-4.58
2023-01-21T06:51:13.216Z,-4.60
2023-01-21T06:52:13.057Z,-4.63
2023-01-21T06:53:13.044Z,-4.68
2023-01-21T06:54:13.051Z,-4.68
2023-01-21T06:55:13.016Z,-4.69
2023-01-21T06:56:13.047Z,-4.71
2023-01-21T06:57:13.048Z,-4.69
2023-01-21T06:58:13.068Z,-4.69
2023-01-21T06:59:13.022Z,-4.71
2023-01-21T07:00:13.221Z,-4.77
2023-01-21T07:01:12.977Z,-4.75
2023-01-21T07:02:13.107Z,-4.71
2023-01-21T07:03:12.954Z,-4.68
2023-01-21T07:04:13.162Z,-4.69
2023-01-21T07:05:12.912Z,-4.71
2023-01-21T07:06:12.934Z,-4.72
2023-01-21T07:07:12.911Z,-4.71
2023-01-21T07:08:12.936Z,-4.68
2023-01-21T07:09:12.911Z,-4.67
2023-01-21T07:10:12.915Z,-4.61
2023-01-21T07:11:12.970Z,-4.65
2023-01-21T07:12:12.953Z,-4.60
2023-01-21T07:13:12.900Z,-4.60
2023-01-21T07:14:12.855Z,-4.60
2023-01-21T07:15:12.818Z,-4.60
2023-01-21T07:16:12.853Z,-4.60
2023-01-21T07:17:12.792Z,-4.60
2023-01-21T07:18:12.802Z,-4.60
2023-01-21T07:19:12.803Z,-4.58
2023-01-21T07:20:12.881Z,-4.58
2023-01-21T07:21:12.748Z,-4.58
2023-01-21T07:22:12.833Z,-4.58
2023-01-21T07:23:12.753Z,-4.60
2023-01-21T07:24:12.911Z,-4.63
2023-01-21T07:25:12.734Z,-4.65
2023-01-21T07:26:12.736Z,-4.65
2023-01-21T07:27:12.683Z,-4.67
2023-01-21T07:28:12.696Z,-4.65
2023-01-21T07:29:12.671Z,-4.65
2023-01-21T07:30:12.677Z,-4.67
2023-01-21T07:31:12.733Z,-4.69
2023-01-21T07:32:12.665Z,-4.68
2023-01-21T07:33:12.630Z,-4.71
2023-01-21T07:34:12.816Z,-4.72
2023-01-21T07:35:12.614Z,-4.72
2023-01-21T07:36:12.609Z,-4.74
2023-01-21T07:37:12.582Z,-4.75
2023-01-21T07:38:12.601Z,-4.75
2023-01-21T07:39:12.583Z,-4.77
2023-01-21T07:40:12.583Z,-4.74
2023-01-21T07:41:12.541Z,-4.74
2023-01-21T07:42:12.557Z,-4.75
2023-01-21T07:43:12.562Z,-4.77
2023-01-21T07:44:12.518Z,-4.79
2023-01-21T07:45:12.505Z,-4.81
2023-01-21T07:46:12.515Z,-4.83
2023-01-21T07:47:12.491Z,-4.85
2023-01-21T07:48:12.461Z,-4.85
2023-01-21T07:49:12.472Z,-4.86
2023-01-21T07:50:12.449Z,-4.87
2023-01-21T07:51:12.480Z,-4.87
2023-01-21T07:52:12.431Z,-4.89
2023-01-21T07:53:12.432Z,-4.87
2023-01-21T07:54:12.502Z,-4.89
2023-01-21T07:55:12.869Z,-4.89
2023-01-21T07:56:12.537Z,-4.89
2023-01-21T07:57:13.181Z,-4.87
2023-01-21T07:58:12.778Z,-4.86
2023-01-21T07:59:12.458Z,-4.87
2023-01-21T08:00:12.668Z,-4.87
2023-01-21T08:01:12.970Z,-4.86
2023-01-21T08:02:12.912Z,-4.86
2023-01-21T08:03:12.939Z,-4.85
2023-01-21T08:04:12.552Z,-4.86
2023-01-21T08:05:12.301Z,-4.87
2023-01-21T08:06:12.457Z,-4.86
2023-01-21T08:07:13.339Z,-4.87
2023-01-21T08:08:12.280Z,-4.86
2023-01-21T08:09:12.281Z,-4.85
2023-01-21T08:10:12.246Z,-4.81
2023-01-21T08:11:12.277Z,-4.77
2023-01-21T08:12:12.219Z,-4.72
2023-01-21T08:13:12.220Z,-4.69
2023-01-21T08:14:12.243Z,-4.68
2023-01-21T08:15:12.194Z,-4.67
2023-01-21T08:16:12.270Z,-4.69
2023-01-21T08:17:12.170Z,-4.71
2023-01-21T08:18:12.223Z,-4.71
2023-01-21T08:19:13.952Z,-4.68
2023-01-21T08:20:12.174Z,-4.69
2023-01-21T08:21:12.117Z,-4.67
2023-01-21T08:22:12.173Z,-4.69
2023-01-21T08:23:12.106Z,-4.69
2023-01-21T08:24:12.090Z,-4.68
2023-01-21T08:25:12.183Z,-4.67
2023-01-21T08:26:12.069Z,-4.65
2023-01-21T08:27:12.131Z,-4.67
2023-01-21T08:28:12.203Z,-4.67
2023-01-21T08:29:12.069Z,-4.67
2023-01-21T08:30:12.060Z,-4.63
2023-01-21T08:31:12.102Z,-4.63
2023-01-21T08:32:12.065Z,-4.58
2023-01-21T08:33:12.011Z,-4.56
2023-01-21T08:34:12.033Z,-4.54
2023-01-21T08:35:11.991Z,-4.51
2023-01-21T08:36:12.079Z,-4.46
2023-01-21T08:37:11.972Z,-4.42
2023-01-21T08:38:11.963Z,-4.40
2023-01-21T08:39:11.938Z,-4.39
2023-01-21T08:40:11.928Z,-4.36
2023-01-21T08:41:11.923Z,-4.32
2023-01-21T08:42:11.941Z,-4.29
2023-01-21T08:43:11.898Z,-4.28
2023-01-21T08:44:11.923Z,-4.22
2023-01-21T08:45:13.806Z,-4.24
2023-01-21T08:46:11.899Z,-4.22
2023-01-21T08:47:11.884Z,-4.20
2023-01-21T08:48:11.838Z,-4.20
2023-01-21T08:49:11.859Z,-4.17
2023-01-21T08:50:11.838Z,-4.14
2023-01-21T08:51:11.845Z,-4.14
2023-01-21T08:52:11.802Z,-4.14
2023-01-21T08:53:11.792Z,-4.17
2023-01-21T08:54:11.794Z,-4.20
2023-01-21T08:55:11.789Z,-4.25
2023-01-21T08:56:11.793Z,-4.25
2023-01-21T08:57:11.750Z,-4.24
2023-01-21T08:58:11.777Z,-4.24
2023-01-21T08:59:11.762Z,-4.20
2023-01-21T09:00:11.747Z,-4.15
2023-01-21T09:01:11.768Z,-4.11
2023-01-21T09:02:11.776Z,-4.07
2023-01-21T09:03:11.678Z,-4.04
2023-01-21T09:04:11.698Z,-4.03
2023-01-21T09:05:11.689Z,-4.03
2023-01-21T09:06:11.686Z,-3.97
2023-01-21T09:07:11.659Z,-3.96
2023-01-21T09:08:11.688Z,-3.96
2023-01-21T09:09:11.641Z,-3.96
2023-01-21T09:10:11.611Z,-3.94
2023-01-21T09:11:11.600Z,-3.94
2023-01-21T09:12:11.626Z,-3.93
2023-01-21T09:13:11.610Z,-3.93
2023-01-21T09:14:11.608Z,-3.88
2023-01-21T09:15:11.557Z,-3.85
2023-01-21T09:16:11.633Z,-3.83
2023-01-21T09:17:11.550Z,-3.79
2023-01-21T09:18:11.554Z,-3.82
2023-01-21T09:19:11.536Z,-3.83
2023-01-21T09:20:11.621Z,-3.83
2023-01-21T09:21:11.497Z,-3.82
2023-01-21T09:22:11.498Z,-3.82
2023-01-21T09:23:11.497Z,-3.79
2023-01-21T09:24:11.514Z,-3.75
2023-01-21T09:25:11.459Z,-3.71
2023-01-21T09:26:11.521Z,-3.64
2023-01-21T09:27:11.440Z,-3.57
2023-01-21T09:28:11.438Z,-3.53
2023-01-21T09:29:11.419Z,-3.48
2023-01-21T09:30:11.453Z,-3.45
2023-01-21T09:31:11.434Z,-3.45
2023-01-21T09:32:11.567Z,-3.38
2023-01-21T09:33:11.388Z,-3.30
2023-01-21T09:34:11.445Z,-3.27
2023-01-21T09:35:11.368Z,-3.23
2023-01-21T09:36:11.351Z,-3.18
2023-01-21T09:37:11.339Z,-3.17
2023-01-21T09:38:11.457Z,-3.17
2023-01-21T09:39:11.307Z,-3.20
2023-01-21T09:40:11.376Z,-3.20
2023-01-21T09:41:11.300Z,-3.18
2023-01-21T09:42:11.307Z,-3.15
2023-01-21T09:43:11.278Z,-3.10
2023-01-21T09:44:11.295Z,-3.03
2023-01-21T09:45:11.257Z,-2.96
2023-01-21T09:46:11.276Z,-2.92
2023-01-21T09:47:11.230Z,-2.88
2023-01-21T09:48:11.220Z,-2.85
2023-01-21T09:49:11.208Z,-2.82
2023-01-21T09:50:11.265Z,-2.81
2023-01-21T09:51:11.225Z,-2.78
2023-01-21T09:52:11.195Z,-2.70
2023-01-21T09:53:11.167Z,-2.67
2023-01-21T09:54:11.178Z,-2.66
2023-01-21T09:55:11.157Z,-2.68
2023-01-21T09:56:11.149Z,-2.61
2023-01-21T09:57:11.116Z,-2.60
2023-01-21T09:58:11.120Z,-2.52
2023-01-21T09:59:11.142Z,-2.46
2023-01-21T10:00:11.137Z,-2.46
2023-01-21T10:01:11.122Z,-2.48
2023-01-21T10:02:11.068Z,-2.45
2023-01-21T10:03:11.057Z,-2.35
2023-01-21T10:04:11.077Z,-2.24
2023-01-21T10:05:11.059Z,-2.23
2023-01-21T10:06:11.030Z,-2.24
2023-01-21T10:07:11.015Z,-2.27
2023-01-21T10:08:11.189Z,-2.26
2023-01-21T10:09:10.997Z,-2.24
2023-01-21T10:10:11.025Z,-2.23
2023-01-21T10:11:10.975Z,-2.20
2023-01-21T10:12:10.987Z,-2.13
2023-01-21T10:13:10.947Z,-2.06
2023-01-21T10:14:11.072Z,-1.90
2023-01-21T10:15:10.940Z,-1.73
2023-01-21T10:16:10.920Z,-1.66
2023-01-21T10:17:10.910Z,-1.66
2023-01-21T10:18:10.930Z,-1.62
2023-01-21T10:19:10.897Z,-1.51
2023-01-21T10:20:10.905Z,-1.41
2023-01-21T10:21:10.883Z,-1.33
2023-01-21T10:22:10.870Z,-1.23
2023-01-21T10:23:10.867Z,-1.13
2023-01-21T10:24:10.857Z,-1.02
2023-01-21T10:25:10.831Z,-0.91
2023-01-21T10:26:10.818Z,-0.76
2023-01-21T10:27:10.815Z,-0.70
2023-01-21T10:28:10.819Z,-0.58
2023-01-21T10:29:10.792Z,-0.46
2023-01-21T10:30:10.795Z,-0.43
2023-01-21T10:31:10.818Z,-0.42
2023-01-21T10:32:10.801Z,-0.40
2023-01-21T10:33:10.727Z,-0.37
2023-01-21T10:34:10.779Z,-0.31
2023-01-21T10:35:10.719Z,-0.26
2023-01-21T10:36:10.728Z,-0.29
2023-01-21T10:37:10.698Z,-0.28
2023-01-21T10:38:10.707Z,-0.25
2023-01-21T10:39:10.671Z,-0.26
2023-01-21T10:40:10.907Z,-0.26
2023-01-21T10:41:10.663Z,-0.26
2023-01-21T10:42:10.644Z,-0.26
2023-01-21T10:43:10.628Z,-0.26
2023-01-21T10:44:10.640Z,-0.25
2023-01-21T10:45:10.621Z,-0.22
2023-01-21T10:46:10.661Z,-0.21
2023-01-21T10:47:10.579Z,-0.16
2023-01-21T10:48:10.600Z,-0.14
2023-01-21T10:49:10.559Z,-0.15
2023-01-21T10:50:10.574Z,-0.10
2023-01-21T10:51:10.576Z,-0.08
2023-01-21T10:52:10.548Z,-0.08
2023-01-21T10:53:10.550Z,-0.07
2023-01-21T10:54:10.552Z,-0.03
2023-01-21T10:55:10.501Z,-0.01
2023-01-21T10:56:10.517Z,-0.01
2023-01-21T10:57:10.494Z,-0.01
2023-01-21T10:58:10.508Z,0.00
2023-01-21T10:59:10.459Z,0.00
2023-01-21T11:00:10.516Z,0.02
2023-01-21T11:01:10.500Z,0.02
2023-01-21T11:02:10.467Z,0.03
2023-01-21T11:03:10.414Z,0.02
2023-01-21T11:04:10.439Z,0.02
2023-01-21T11:05:10.465Z,0.04
2023-01-21T11:06:10.370Z,0.04
2023-01-21T11:07:10.380Z,0.07
2023-01-21T11:08:10.446Z,0.07
2023-01-21T11:09:10.377Z,0.08
2023-01-21T11:10:10.470Z,0.10
2023-01-21T11:11:10.331Z,0.11
2023-01-21T11:12:10.362Z,0.13
2023-01-21T11:13:10.434Z,0.14
2023-01-21T11:14:10.344Z,0.14
2023-01-21T11:15:10.301Z,0.15
2023-01-21T11:16:10.744Z,0.14
2023-01-21T11:17:10.271Z,0.15
2023-01-21T11:18:10.253Z,0.17
2023-01-21T11:19:10.275Z,0.20
2023-01-21T11:20:10.424Z,0.20
2023-01-21T11:21:10.221Z,0.21
2023-01-21T11:22:10.244Z,0.21
2023-01-21T11:23:10.202Z,0.21
2023-01-21T11:24:10.234Z,0.23
2023-01-21T11:25:10.200Z,0.23
2023-01-21T11:26:10.531Z,0.23
2023-01-21T11:27:10.171Z,0.24
2023-01-21T11:28:10.162Z,0.26
2023-01-21T11:29:10.151Z,0.26
2023-01-21T11:30:31.450Z,0.28
2023-01-21T11:31:11.225Z,0.29
2023-01-21T11:32:10.256Z,0.28
2023-01-21T11:33:10.108Z,0.28
2023-01-21T11:34:10.166Z,0.26
2023-01-21T11:35:10.710Z,0.28
2023-01-21T11:36:10.081Z,0.29
2023-01-21T11:37:10.066Z,0.29
2023-01-21T11:38:10.153Z,0.29
2023-01-21T11:39:10.032Z,0.32
2023-01-21T11:40:10.062Z,0.33
2023-01-21T11:41:11.046Z,0.38
2023-01-21T11:42:10.053Z,0.38
2023-01-21T11:43:10.009Z,0.36
2023-01-21T11:44:10.048Z,0.38
2023-01-21T11:45:09.995Z,0.38
2023-01-21T11:46:10.043Z,0.39
2023-01-21T11:47:09.960Z,0.39
2023-01-21T11:48:09.934Z,0.39
2023-01-21T11:49:09.965Z,0.41
2023-01-21T11:50:09.925Z,0.44
2023-01-21T11:51:09.976Z,0.44
2023-01-21T11:52:09.962Z,0.44
2023-01-21T11:53:09.892Z,0.46
2023-01-21T11:54:09.893Z,0.47
2023-01-21T11:55:09.884Z,0.47
2023-01-21T11:56:09.859Z,0.47
2023-01-21T11:57:09.843Z,0.47
2023-01-21T11:58:09.833Z,0.47
2023-01-21T11:59:09.824Z,0.47
2023-01-21T12:00:09.836Z,0.49
2023-01-21T12:01:09.808Z,0.50
2023-01-21T12:02:09.790Z,0.51
2023-01-21T12:03:09.802Z,0.55
2023-01-21T12:04:09.850Z,0.55
2023-01-21T12:05:09.785Z,0.53
2023-01-21T12:06:09.783Z,0.55
2023-01-21T12:07:09.743Z,0.55
2023-01-21T12:08:09.736Z,0.55
2023-01-21T12:09:09.722Z,0.55
2023-01-21T12:10:09.720Z,0.57
2023-01-21T12:11:09.711Z,0.58
2023-01-21T12:12:09.714Z,0.60
2023-01-21T12:13:09.680Z,0.61
2023-01-21T12:14:09.675Z,0.61
2023-01-21T12:15:09.666Z,0.61
2023-01-21T12:16:09.699Z,0.61
2023-01-21T12:17:09.636Z,0.65
2023-01-21T12:18:09.613Z,0.66
2023-01-21T12:19:09.632Z,0.68
2023-01-21T12:20:09.602Z,0.68
2023-01-21T12:21:09.595Z,0.68
2023-01-21T12:22:09.599Z,0.69
2023-01-21T12:23:09.601Z,0.70
2023-01-21T12:24:09.615Z,0.70
2023-01-21T12:25:09.556Z,0.73
2023-01-21T12:26:09.559Z,0.72
2023-01-21T12:27:09.537Z,0.75
2023-01-21T12:28:09.625Z,0.75
2023-01-21T12:29:09.576Z,0.78
2023-01-21T12:30:09.495Z,0.78
2023-01-21T12:31:09.635Z,0.79
2023-01-21T12:32:09.513Z,0.80
2023-01-21T12:33:09.464Z,0.84
2023-01-21T12:34:09.585Z,0.83
2023-01-21T12:35:09.448Z,0.84
2023-01-21T12:36:09.427Z,0.84
2023-01-21T12:37:09.415Z,0.86
2023-01-21T12:38:09.440Z,0.86
2023-01-21T12:39:09.397Z,0.87
2023-01-21T12:40:09.646Z,0.87
2023-01-21T12:41:09.390Z,0.87
2023-01-21T12:42:09.374Z,0.88
2023-01-21T12:43:09.354Z,0.88
2023-01-21T12:44:09.442Z,0.91
2023-01-21T12:45:09.377Z,0.91
2023-01-21T12:46:09.413Z,0.93
2023-01-21T12:47:09.329Z,0.93
2023-01-21T12:48:09.434Z,0.96
2023-01-21T12:49:09.298Z,0.96
2023-01-21T12:50:09.538Z,0.97
2023-01-21T12:51:09.313Z,0.97
2023-01-21T12:52:09.258Z,0.97
2023-01-21T12:53:09.268Z,0.98
2023-01-21T12:54:09.286Z,0.98
2023-01-21T12:55:09.249Z,0.98
2023-01-21T12:56:09.329Z,1.00